sensor_id;sensor_type;location;lat;lon;timestamp;pressure;altitude;pressure_sealevel;temperature
15360;BMP280;7779;49.596;11.070;2023-02-11T00:00:38;100316.41;;;-0.47
15360;BMP280;7779;49.596;11.070;2023-02-11T00:03:04;100305.66;;;-0.47
15360;BMP280;7779;49.596;11.070;2023-02-11T00:05:29;100298.09;;;-0.49
15360;BMP280;7779;49.596;11.070;2023-02-11T00:07:55;100294.53;;;-0.51
15360;BMP280;7779;49.596;11.070;2023-02-11T00:10:21;100302.13;;;-0.49
15360;BMP280;7779;49.596;11.070;2023-02-11T00:12:47;100302.84;;;-0.50
15360;BMP280;7779;49.596;11.070;2023-02-11T00:15:13;100302.84;;;-0.50
15360;BMP280;7779;49.596;11.070;2023-02-11T00:17:38;100291.22;;;-0.51
15360;BMP280;7779;49.596;11.070;2023-02-11T00:20:05;100282.03;;;-0.52
15360;BMP280;7779;49.596;11.070;2023-02-11T00:22:30;100290.13;;;-0.53
15360;BMP280;7779;49.596;11.070;2023-02-11T00:24:56;100291.72;;;-0.54
15360;BMP280;7779;49.596;11.070;2023-02-11T00:27:22;100296.44;;;-0.55
15360;BMP280;7779;49.596;11.070;2023-02-11T00:29:48;100295.72;;;-0.54
15360;BMP280;7779;49.596;11.070;2023-02-11T00:32:13;100288.13;;;-0.56
15360;BMP280;7779;49.596;11.070;2023-02-11T00:34:39;100289.06;;;-0.55
15360;BMP280;7779;49.596;11.070;2023-02-11T00:37:05;100293.25;;;-0.54
15360;BMP280;7779;49.596;11.070;2023-02-11T00:39:31;100295.06;;;-0.53
15360;BMP280;7779;49.596;11.070;2023-02-11T00:41:57;100296.81;;;-0.52
15360;BMP280;7779;49.596;11.070;2023-02-11T00:44:23;100292.09;;;-0.51
15360;BMP280;7779;49.596;11.070;2023-02-11T00:46:48;100297.19;;;-0.49
15360;BMP280;7779;49.596;11.070;2023-02-11T00:49:14;100287.34;;;-0.49
15360;BMP280;7779;49.596;11.070;2023-02-11T00:51:40;100293.16;;;-0.49
15360;BMP280;7779;49.596;11.070;2023-02-11T00:54:06;100289.81;;;-0.49
15360;BMP280;7779;49.596;11.070;2023-02-11T00:56:32;100294.44;;;-0.45
15360;BMP280;7779;49.596;11.070;2023-02-11T00:58:58;100293.56;;;-0.46
15360;BMP280;7779;49.596;11.070;2023-02-11T01:01:24;100293.56;;;-0.46
15360;BMP280;7779;49.596;11.070;2023-02-11T01:03:50;100284.59;;;-0.45
15360;BMP280;7779;49.596;11.070;2023-02-11T01:06:17;100280.56;;;-0.45
15360;BMP280;7779;49.596;11.070;2023-02-11T01:08:43;100277.91;;;-0.46
15360;BMP280;7779;49.596;11.070;2023-02-11T01:11:19;100287.75;;;-0.46
15360;BMP280;7779;49.596;11.070;2023-02-11T01:13:46;100282.84;;;-0.46
15360;BMP280;7779;49.596;11.070;2023-02-11T01:16:13;100277.91;;;-0.46
15360;BMP280;7779;49.596;11.070;2023-02-11T01:18:40;100267.56;;;-0.44
15360;BMP280;7779;49.596;11.070;2023-02-11T01:21:09;100254.72;;;-0.41
15360;BMP280;7779;49.596;11.070;2023-02-11T01:23:35;100258.97;;;-0.40
15360;BMP280;7779;49.596;11.070;2023-02-11T01:26:00;100264.97;;;-0.39
15360;BMP280;7779;49.596;11.070;2023-02-11T01:28:29;100266.94;;;-0.36
15360;BMP280;7779;49.596;11.070;2023-02-11T01:30:55;100264.66;;;-0.35
15360;BMP280;7779;49.596;11.070;2023-02-11T01:33:22;100268.19;;;-0.33
15360;BMP280;7779;49.596;11.070;2023-02-11T01:35:49;100252.75;;;-0.32
15360;BMP280;7779;49.596;11.070;2023-02-11T01:38:22;100243.56;;;-0.33
15360;BMP280;7779;49.596;11.070;2023-02-11T01:40:58;100245.38;;;-0.32
15360;BMP280;7779;49.596;11.070;2023-02-11T01:43:33;100245.38;;;-0.32
15360;BMP280;7779;49.596;11.070;2023-02-11T01:46:05;100243.78;;;-0.31
15360;BMP280;7779;49.596;11.070;2023-02-11T01:48:41;100238.16;;;-0.30
15360;BMP280;7779;49.596;11.070;2023-02-11T01:51:19;100244.84;;;-0.29
15360;BMP280;7779;49.596;11.070;2023-02-11T01:53:47;100242.59;;;-0.28
15360;BMP280;7779;49.596;11.070;2023-02-11T01:56:40;100226.22;;;-0.27
15360;BMP280;7779;49.596;11.070;2023-02-11T02:00:12;100220.81;;;-0.25
15360;BMP280;7779;49.596;11.070;2023-02-11T02:03:07;100221.69;;;-0.24
15360;BMP280;7779;49.596;11.070;2023-02-11T02:05:55;100227.69;;;-0.22
15360;BMP280;7779;49.596;11.070;2023-02-11T02:08:54;100233.88;;;-0.19
15360;BMP280;7779;49.596;11.070;2023-02-11T02:11:22;100224.22;;;-0.17
15360;BMP280;7779;49.596;11.070;2023-02-11T02:13:48;100228.44;;;-0.16
15360;BMP280;7779;49.596;11.070;2023-02-11T02:16:17;100225.69;;;-0.12
15360;BMP280;7779;49.596;11.070;2023-02-11T02:25:14;100200.94;;;-0.07
15360;BMP280;7779;49.596;11.070;2023-02-11T02:28:09;100192.47;;;-0.09
15360;BMP280;7779;49.596;11.070;2023-02-11T02:31:31;100189.28;;;-0.08
15360;BMP280;7779;49.596;11.070;2023-02-11T02:34:12;100184.38;;;-0.08
15360;BMP280;7779;49.596;11.070;2023-02-11T02:36:51;100187.22;;;-0.05
15360;BMP280;7779;49.596;11.070;2023-02-11T02:39:26;100184.63;;;0.00
15360;BMP280;7779;49.596;11.070;2023-02-11T02:41:53;100182.72;;;0.05
15360;BMP280;7779;49.596;11.070;2023-02-11T02:44:20;100179.25;;;0.10
15360;BMP280;7779;49.596;11.070;2023-02-11T02:46:45;100175.06;;;0.16
15360;BMP280;7779;49.596;11.070;2023-02-11T02:49:14;100179.19;;;0.22
15360;BMP280;7779;49.596;11.070;2023-02-11T02:54:49;100170.81;;;0.34
15360;BMP280;7779;49.596;11.070;2023-02-11T03:00:25;100164.03;;;0.45
15360;BMP280;7779;49.596;11.070;2023-02-11T03:03:25;100173.97;;;0.52
15360;BMP280;7779;49.596;11.070;2023-02-11T03:06:11;100172.22;;;0.58
15360;BMP280;7779;49.596;11.070;2023-02-11T03:08:54;100182.16;;;0.65
15360;BMP280;7779;49.596;11.070;2023-02-11T03:11:23;100181.09;;;0.70
15360;BMP280;7779;49.596;11.070;2023-02-11T03:13:51;100179.59;;;0.77
15360;BMP280;7779;49.596;11.070;2023-02-11T03:16:25;100182.97;;;0.85
15360;BMP280;7779;49.596;11.070;2023-02-11T03:19:02;100179.16;;;0.94
15360;BMP280;7779;49.596;11.070;2023-02-11T03:21:32;100166.47;;;0.98
15360;BMP280;7779;49.596;11.070;2023-02-11T03:24:06;100172.84;;;1.03
15360;BMP280;7779;49.596;11.070;2023-02-11T03:26:39;100166.66;;;1.06
15360;BMP280;7779;49.596;11.070;2023-02-11T03:29:35;100159.81;;;1.11
15360;BMP280;7779;49.596;11.070;2023-02-11T03:32:09;100160.19;;;1.14
15360;BMP280;7779;49.596;11.070;2023-02-11T03:34:54;100154.38;;;1.20
15360;BMP280;7779;49.596;11.070;2023-02-11T03:37:50;100153.53;;;1.26
15360;BMP280;7779;49.596;11.070;2023-02-11T03:40:26;100151.41;;;1.29
15360;BMP280;7779;49.596;11.070;2023-02-11T03:45:44;100159.56;;;1.35
15360;BMP280;7779;49.596;11.070;2023-02-11T03:48:41;100157.81;;;1.41
15360;BMP280;7779;49.596;11.070;2023-02-11T03:51:11;100147.59;;;1.45
15360;BMP280;7779;49.596;11.070;2023-02-11T03:53:40;100152.03;;;1.48
15360;BMP280;7779;49.596;11.070;2023-02-11T03:56:13;100153.25;;;1.51
15360;BMP280;7779;49.596;11.070;2023-02-11T03:58:40;100163.50;;;1.54
15360;BMP280;7779;49.596;11.070;2023-02-11T04:01:06;100155.03;;;1.59
15360;BMP280;7779;49.596;11.070;2023-02-11T04:03:34;100155.75;;;1.65
15360;BMP280;7779;49.596;11.070;2023-02-11T04:06:00;100142.34;;;1.70
15360;BMP280;7779;49.596;11.070;2023-02-11T04:08:25;100145.34;;;1.74
15360;BMP280;7779;49.596;11.070;2023-02-11T04:10:51;100147.66;;;1.80
15360;BMP280;7779;49.596;11.070;2023-02-11T04:13:17;100136.72;;;1.85
15360;BMP280;7779;49.596;11.070;2023-02-11T04:15:42;100128.94;;;1.89
15360;BMP280;7779;49.596;11.070;2023-02-11T04:18:08;100118.75;;;1.93
15360;BMP280;7779;49.596;11.070;2023-02-11T04:20:34;100112.72;;;1.97
15360;BMP280;7779;49.596;11.070;2023-02-11T04:22:59;100107.41;;;2.01
15360;BMP280;7779;49.596;11.070;2023-02-11T04:25:25;100097.69;;;2.03
15360;BMP280;7779;49.596;11.070;2023-02-11T04:27:51;100087.31;;;2.05
15360;BMP280;7779;49.596;11.070;2023-02-11T04:30:17;100094.19;;;2.08
15360;BMP280;7779;49.596;11.070;2023-02-11T04:32:43;100102.47;;;2.08
15360;BMP280;7779;49.596;11.070;2023-02-11T04:35:08;100095.06;;;2.08
15360;BMP280;7779;49.596;11.070;2023-02-11T04:37:34;100104.56;;;2.12
15360;BMP280;7779;49.596;11.070;2023-02-11T04:40:00;100093.81;;;2.12
15360;BMP280;7779;49.596;11.070;2023-02-11T04:42:26;100082.31;;;2.12
15360;BMP280;7779;49.596;11.070;2023-02-11T04:44:52;100077.75;;;2.15
15360;BMP280;7779;49.596;11.070;2023-02-11T04:47:17;100084.78;;;2.19
15360;BMP280;7779;49.596;11.070;2023-02-11T04:49:43;100082.00;;;2.23
15360;BMP280;7779;49.596;11.070;2023-02-11T04:52:09;100083.03;;;2.25
15360;BMP280;7779;49.596;11.070;2023-02-11T04:54:35;100078.09;;;2.25
15360;BMP280;7779;49.596;11.070;2023-02-11T04:57:01;100080.72;;;2.27
15360;BMP280;7779;49.596;11.070;2023-02-11T04:59:27;100081.81;;;2.29
15360;BMP280;7779;49.596;11.070;2023-02-11T05:01:52;100091.16;;;2.31
15360;BMP280;7779;49.596;11.070;2023-02-11T05:04:18;100097.84;;;2.32
15360;BMP280;7779;49.596;11.070;2023-02-11T05:06:44;100118.00;;;2.35
15360;BMP280;7779;49.596;11.070;2023-02-11T05:09:13;100115.88;;;2.38
15360;BMP280;7779;49.596;11.070;2023-02-11T05:11:39;100103.84;;;2.41
15360;BMP280;7779;49.596;11.070;2023-02-11T05:14:05;100086.19;;;2.45
15360;BMP280;7779;49.596;11.070;2023-02-11T05:16:32;100084.75;;;2.54
15360;BMP280;7779;49.596;11.070;2023-02-11T05:18:57;100069.72;;;2.59
15360;BMP280;7779;49.596;11.070;2023-02-11T05:21:24;100076.22;;;2.66
15360;BMP280;7779;49.596;11.070;2023-02-11T05:23:50;100076.88;;;2.71
15360;BMP280;7779;49.596;11.070;2023-02-11T05:26:17;100075.13;;;2.77
15360;BMP280;7779;49.596;11.070;2023-02-11T05:28:43;100056.00;;;2.83
15360;BMP280;7779;49.596;11.070;2023-02-11T05:31:09;100050.66;;;2.87
15360;BMP280;7779;49.596;11.070;2023-02-11T05:33:35;100054.53;;;2.92
15360;BMP280;7779;49.596;11.070;2023-02-11T05:36:05;100068.16;;;2.96
15360;BMP280;7779;49.596;11.070;2023-02-11T05:38:32;100070.06;;;2.98
15360;BMP280;7779;49.596;11.070;2023-02-11T05:40:58;100055.56;;;3.01
15360;BMP280;7779;49.596;11.070;2023-02-11T05:43:24;100032.53;;;3.02
15360;BMP280;7779;49.596;11.070;2023-02-11T05:45:50;100052.91;;;3.00
15360;BMP280;7779;49.596;11.070;2023-02-11T05:48:16;100063.38;;;2.97
15360;BMP280;7779;49.596;11.070;2023-02-11T05:50:43;100052.25;;;2.94
15360;BMP280;7779;49.596;11.070;2023-02-11T05:53:09;100046.94;;;2.91
15360;BMP280;7779;49.596;11.070;2023-02-11T05:55:35;100055.63;;;2.87
15360;BMP280;7779;49.596;11.070;2023-02-11T05:58:00;100062.72;;;2.84
15360;BMP280;7779;49.596;11.070;2023-02-11T06:00:26;100065.53;;;2.80
15360;BMP280;7779;49.596;11.070;2023-02-11T06:02:52;100078.47;;;2.78
15360;BMP280;7779;49.596;11.070;2023-02-11T06:05:18;100077.25;;;2.74
15360;BMP280;7779;49.596;11.070;2023-02-11T06:07:44;100067.72;;;2.71
15360;BMP280;7779;49.596;11.070;2023-02-11T06:10:10;100072.31;;;2.68
15360;BMP280;7779;49.596;11.070;2023-02-11T06:12:37;100065.63;;;2.67
15360;BMP280;7779;49.596;11.070;2023-02-11T06:15:03;100062.78;;;2.64
15360;BMP280;7779;49.596;11.070;2023-02-11T06:17:30;100064.91;;;2.61
15360;BMP280;7779;49.596;11.070;2023-02-11T06:20:01;100056.44;;;2.59
15360;BMP280;7779;49.596;11.070;2023-02-11T06:22:28;100054.34;;;2.55
15360;BMP280;7779;49.596;11.070;2023-02-11T06:24:54;100053.09;;;2.51
15360;BMP280;7779;49.596;11.070;2023-02-11T06:27:20;100055.78;;;2.46
15360;BMP280;7779;49.596;11.070;2023-02-11T06:29:46;100056.16;;;2.42
15360;BMP280;7779;49.596;11.070;2023-02-11T06:32:12;100045.56;;;2.36
15360;BMP280;7779;49.596;11.070;2023-02-11T06:34:38;100044.16;;;2.31
15360;BMP280;7779;49.596;11.070;2023-02-11T06:37:05;100048.56;;;2.27
15360;BMP280;7779;49.596;11.070;2023-02-11T06:39:31;100053.69;;;2.21
15360;BMP280;7779;49.596;11.070;2023-02-11T06:41:57;100060.06;;;2.19
15360;BMP280;7779;49.596;11.070;2023-02-11T06:44:22;100056.22;;;2.14
15360;BMP280;7779;49.596;11.070;2023-02-11T06:46:48;100078.81;;;2.10
15360;BMP280;7779;49.596;11.070;2023-02-11T06:49:14;100076.00;;;2.07
15360;BMP280;7779;49.596;11.070;2023-02-11T06:51:39;100081.63;;;2.06
15360;BMP280;7779;49.596;11.070;2023-02-11T06:54:05;100091.53;;;2.06
15360;BMP280;7779;49.596;11.070;2023-02-11T06:56:32;100079.16;;;2.06
15360;BMP280;7779;49.596;11.070;2023-02-11T06:58:58;100087.31;;;2.05
15360;BMP280;7779;49.596;11.070;2023-02-11T07:01:26;100101.97;;;2.04
15360;BMP280;7779;49.596;11.070;2023-02-11T07:03:52;100093.66;;;2.03
15360;BMP280;7779;49.596;11.070;2023-02-11T07:06:21;100088.72;;;2.03
15360;BMP280;7779;49.596;11.070;2023-02-11T07:08:48;100089.41;;;2.02
15360;BMP280;7779;49.596;11.070;2023-02-11T07:11:18;100088.53;;;2.09
15360;BMP280;7779;49.596;11.070;2023-02-11T07:13:45;100086.75;;;2.15
15360;BMP280;7779;49.596;11.070;2023-02-11T07:16:15;100092.94;;;2.25
15360;BMP280;7779;49.596;11.070;2023-02-11T07:18:41;100089.03;;;2.34
15360;BMP280;7779;49.596;11.070;2023-02-11T07:21:10;100081.25;;;2.45
15360;BMP280;7779;49.596;11.070;2023-02-11T07:23:37;100086.50;;;2.55
15360;BMP280;7779;49.596;11.070;2023-02-11T07:26:07;100074.97;;;2.62
15360;BMP280;7779;49.596;11.070;2023-02-11T07:28:34;100067.72;;;2.71
15360;BMP280;7779;49.596;11.070;2023-02-11T07:31:16;100059.53;;;2.78
15360;BMP280;7779;49.596;11.070;2023-02-11T07:33:42;100064.13;;;2.82
15360;BMP280;7779;49.596;11.070;2023-02-11T07:36:10;100062.34;;;2.88
15360;BMP280;7779;49.596;11.070;2023-02-11T07:38:37;100060.53;;;2.94
15360;BMP280;7779;49.596;11.070;2023-02-11T07:41:06;100067.22;;;3.02
15360;BMP280;7779;49.596;11.070;2023-02-11T07:43:34;100071.75;;;3.13
15360;BMP280;7779;49.596;11.070;2023-02-11T07:46:04;100085.50;;;3.25
15360;BMP280;7779;49.596;11.070;2023-02-11T07:48:30;100079.09;;;3.34
15360;BMP280;7779;49.596;11.070;2023-02-11T07:51:15;100089.28;;;3.44
15360;BMP280;7779;49.596;11.070;2023-02-11T07:53:41;100099.66;;;3.55
15360;BMP280;7779;49.596;11.070;2023-02-11T07:56:09;100102.59;;;3.66
15360;BMP280;7779;49.596;11.070;2023-02-11T07:58:35;100108.16;;;3.79
15360;BMP280;7779;49.596;11.070;2023-02-11T08:01:04;100110.53;;;3.93
15360;BMP280;7779;49.596;11.070;2023-02-11T08:03:32;100116.28;;;4.07
15360;BMP280;7779;49.596;11.070;2023-02-11T08:05:58;100126.97;;;4.22
15360;BMP280;7779;49.596;11.070;2023-02-11T08:08:27;100103.44;;;4.33
15360;BMP280;7779;49.596;11.070;2023-02-11T08:10:52;100105.47;;;4.44
15360;BMP280;7779;49.596;11.070;2023-02-11T08:13:18;100104.28;;;4.56
15360;BMP280;7779;49.596;11.070;2023-02-11T08:15:44;100108.78;;;4.67
15360;BMP280;7779;49.596;11.070;2023-02-11T08:18:10;100101.59;;;4.77
15360;BMP280;7779;49.596;11.070;2023-02-11T08:20:35;100095.97;;;4.86
15360;BMP280;7779;49.596;11.070;2023-02-11T08:23:01;100084.69;;;4.97
15360;BMP280;7779;49.596;11.070;2023-02-11T08:25:27;100079.94;;;5.06
15360;BMP280;7779;49.596;11.070;2023-02-11T08:27:53;100072.38;;;5.13
15360;BMP280;7779;49.596;11.070;2023-02-11T08:30:18;100075.06;;;5.23
15360;BMP280;7779;49.596;11.070;2023-02-11T08:32:44;100075.00;;;5.30
15360;BMP280;7779;49.596;11.070;2023-02-11T08:35:10;100083.38;;;5.39
15360;BMP280;7779;49.596;11.070;2023-02-11T08:37:37;100086.81;;;5.48
15360;BMP280;7779;49.596;11.070;2023-02-11T08:40:04;100077.09;;;5.58
15360;BMP280;7779;49.596;11.070;2023-02-11T08:42:29;100080.50;;;5.67
15360;BMP280;7779;49.596;11.070;2023-02-11T08:44:55;100078.09;;;5.75
15360;BMP280;7779;49.596;11.070;2023-02-11T08:47:21;100068.19;;;5.83
15360;BMP280;7779;49.596;11.070;2023-02-11T08:49:46;100073.22;;;5.92
15360;BMP280;7779;49.596;11.070;2023-02-11T08:52:12;100073.22;;;6.00
15360;BMP280;7779;49.596;11.070;2023-02-11T08:54:38;100066.84;;;6.11
15360;BMP280;7779;49.596;11.070;2023-02-11T08:57:03;100073.91;;;6.23
15360;BMP280;7779;49.596;11.070;2023-02-11T08:59:29;100073.22;;;6.32
15360;BMP280;7779;49.596;11.070;2023-02-11T09:01:55;100061.06;;;6.44
15360;BMP280;7779;49.596;11.070;2023-02-11T09:04:21;100066.25;;;6.54
15360;BMP280;7779;49.596;11.070;2023-02-11T09:06:47;100064.66;;;6.62
15360;BMP280;7779;49.596;11.070;2023-02-11T09:09:14;100053.97;;;6.72
15360;BMP280;7779;49.596;11.070;2023-02-11T09:11:42;100046.63;;;6.82
15360;BMP280;7779;49.596;11.070;2023-02-11T09:14:17;100046.19;;;6.94
15360;BMP280;7779;49.596;11.070;2023-02-11T09:16:43;100045.59;;;7.05
15360;BMP280;7779;49.596;11.070;2023-02-11T09:19:10;100047.50;;;7.16
15360;BMP280;7779;49.596;11.070;2023-02-11T09:21:36;100048.25;;;7.23
15360;BMP280;7779;49.596;11.070;2023-02-11T09:24:02;100054.97;;;7.33
15360;BMP280;7779;49.596;11.070;2023-02-11T09:26:31;100063.44;;;7.43
15360;BMP280;7779;49.596;11.070;2023-02-11T09:28:58;100056.41;;;7.56
15360;BMP280;7779;49.596;11.070;2023-02-11T09:31:26;100059.31;;;7.69
15360;BMP280;7779;49.596;11.070;2023-02-11T09:33:56;100066.59;;;7.84
15360;BMP280;7779;49.596;11.070;2023-02-11T09:36:27;100067.13;;;7.98
15360;BMP280;7779;49.596;11.070;2023-02-11T09:38:54;100071.66;;;8.11
15360;BMP280;7779;49.596;11.070;2023-02-11T09:43:55;100068.69;;;8.23
15360;BMP280;7779;49.596;11.070;2023-02-11T09:46:24;100060.88;;;8.28
15360;BMP280;7779;49.596;11.070;2023-02-11T09:48:53;100062.31;;;8.35
15360;BMP280;7779;49.596;11.070;2023-02-11T09:51:39;100062.53;;;8.46
15360;BMP280;7779;49.596;11.070;2023-02-11T09:54:22;100056.88;;;8.57
15360;BMP280;7779;49.596;11.070;2023-02-11T09:56:51;100058.56;;;8.66
15360;BMP280;7779;49.596;11.070;2023-02-11T09:59:16;100066.28;;;8.78
15360;BMP280;7779;49.596;11.070;2023-02-11T10:02:14;100064.88;;;8.90
15360;BMP280;7779;49.596;11.070;2023-02-11T10:05:19;100060.69;;;8.98
15360;BMP280;7779;49.596;11.070;2023-02-11T10:08:39;100054.16;;;9.09
15360;BMP280;7779;49.596;11.070;2023-02-11T10:14:33;100060.44;;;9.32
15360;BMP280;7779;49.596;11.070;2023-02-11T10:20:35;100075.28;;;9.59
15360;BMP280;7779;49.596;11.070;2023-02-11T10:23:15;100078.22;;;9.73
15360;BMP280;7779;49.596;11.070;2023-02-11T10:25:45;100071.78;;;9.85
15360;BMP280;7779;49.596;11.070;2023-02-11T10:28:19;100068.75;;;9.97
15360;BMP280;7779;49.596;11.070;2023-02-11T10:31:10;100069.03;;;10.10
15360;BMP280;7779;49.596;11.070;2023-02-11T10:34:02;100064.78;;;10.19
15360;BMP280;7779;49.596;11.070;2023-02-11T10:36:33;100075.44;;;10.26
15360;BMP280;7779;49.596;11.070;2023-02-11T10:39:10;100077.84;;;10.35
15360;BMP280;7779;49.596;11.070;2023-02-11T10:41:44;100066.56;;;10.40
15360;BMP280;7779;49.596;11.070;2023-02-11T10:44:31;100058.81;;;10.47
15360;BMP280;7779;49.596;11.070;2023-02-11T10:47:03;100056.69;;;10.51
15360;BMP280;7779;49.596;11.070;2023-02-11T10:49:40;100052.91;;;10.56
15360;BMP280;7779;49.596;11.070;2023-02-11T10:52:25;100049.03;;;10.59
15360;BMP280;7779;49.596;11.070;2023-02-11T10:55:15;100043.75;;;10.66
15360;BMP280;7779;49.596;11.070;2023-02-11T10:58:01;100047.03;;;10.75
15360;BMP280;7779;49.596;11.070;2023-02-11T11:00:37;100056.06;;;10.83
15360;BMP280;7779;49.596;11.070;2023-02-11T11:03:19;100057.56;;;10.91
15360;BMP280;7779;49.596;11.070;2023-02-11T11:06:01;100040.75;;;11.00
15360;BMP280;7779;49.596;11.070;2023-02-11T11:08:47;100031.31;;;11.07
15360;BMP280;7779;49.596;11.070;2023-02-11T11:11:20;100039.31;;;11.13
15360;BMP280;7779;49.596;11.070;2023-02-11T11:16:31;100036.69;;;11.22
15360;BMP280;7779;49.596;11.070;2023-02-11T11:21:47;100056.63;;;11.30
15360;BMP280;7779;49.596;11.070;2023-02-11T11:24:22;100055.84;;;11.31
15360;BMP280;7779;49.596;11.070;2023-02-11T11:26:54;100055.72;;;11.29
15360;BMP280;7779;49.596;11.070;2023-02-11T11:29:33;100057.34;;;11.29
15360;BMP280;7779;49.596;11.070;2023-02-11T11:32:19;100052.47;;;11.30
15360;BMP280;7779;49.596;11.070;2023-02-11T11:34:52;100039.91;;;11.30
15360;BMP280;7779;49.596;11.070;2023-02-11T11:37:27;100041.66;;;11.31
15360;BMP280;7779;49.596;11.070;2023-02-11T11:42:41;100043.94;;;11.29
15360;BMP280;7779;49.596;11.070;2023-02-11T11:48:11;100049.72;;;11.28
15360;BMP280;7779;49.596;11.070;2023-02-11T11:50:58;100040.31;;;11.25
15360;BMP280;7779;49.596;11.070;2023-02-11T11:53:40;100042.69;;;11.24
15360;BMP280;7779;49.596;11.070;2023-02-11T11:56:27;100036.81;;;11.23
15360;BMP280;7779;49.596;11.070;2023-02-11T11:58:55;100039.31;;;11.23
15360;BMP280;7779;49.596;11.070;2023-02-11T12:01:49;100043.94;;;11.29
15360;BMP280;7779;49.596;11.070;2023-02-11T12:04:44;100043.94;;;11.29
15360;BMP280;7779;49.596;11.070;2023-02-11T12:08:02;100049.72;;;11.28
15360;BMP280;7779;49.596;11.070;2023-02-11T12:11:01;100041.31;;;11.27
15360;BMP280;7779;49.596;11.070;2023-02-11T12:13:42;100041.06;;;11.24
15360;BMP280;7779;49.596;11.070;2023-02-11T12:16:27;100033.44;;;11.23
15360;BMP280;7779;49.596;11.070;2023-02-11T12:19:38;100031.66;;;11.22
15360;BMP280;7779;49.596;11.070;2023-02-11T12:22:23;100029.91;;;11.21
15360;BMP280;7779;49.596;11.070;2023-02-11T12:37:01;100007.34;;;11.11
15360;BMP280;7779;49.596;11.070;2023-02-11T12:39:49;100010.84;;;11.13
15360;BMP280;7779;49.596;11.070;2023-02-11T12:42:37;100017.75;;;11.15
15360;BMP280;7779;49.596;11.070;2023-02-11T12:52:10;100022.16;;;11.18
15360;BMP280;7779;49.596;11.070;2023-02-11T12:54:51;100016.34;;;11.19
15360;BMP280;7779;49.596;11.070;2023-02-11T12:57:25;100010.59;;;11.20
15360;BMP280;7779;49.596;11.070;2023-02-11T13:05:54;99997.06;;;11.18
15360;BMP280;7779;49.596;11.070;2023-02-11T13:08:44;99987.53;;;11.14
15360;BMP280;7779;49.596;11.070;2023-02-11T13:11:14;99984.78;;;11.11
15360;BMP280;7779;49.596;11.070;2023-02-11T13:14:11;99984.78;;;11.11
15360;BMP280;7779;49.596;11.070;2023-02-11T13:16:48;99985.53;;;11.10
15360;BMP280;7779;49.596;11.070;2023-02-11T13:19:47;99982.91;;;11.08
15360;BMP280;7779;49.596;11.070;2023-02-11T13:22:37;99986.81;;;11.05
15360;BMP280;7779;49.596;11.070;2023-02-11T13:25:37;99978.91;;;11.00
15360;BMP280;7779;49.596;11.070;2023-02-11T13:31:02;99981.06;;;10.96
15360;BMP280;7779;49.596;11.070;2023-02-11T13:33:37;99985.44;;;10.98
15360;BMP280;7779;49.596;11.070;2023-02-11T13:36:17;99984.19;;;11.03
15360;BMP280;7779;49.596;11.070;2023-02-11T13:39:18;99984.91;;;11.12
15360;BMP280;7779;49.596;11.070;2023-02-11T13:41:45;99972.84;;;11.18
15360;BMP280;7779;49.596;11.070;2023-02-11T13:47:05;99983.06;;;11.41
15360;BMP280;7779;49.596;11.070;2023-02-11T13:49:40;99983.25;;;11.44
15360;BMP280;7779;49.596;11.070;2023-02-11T13:52:31;99992.19;;;11.40
15360;BMP280;7779;49.596;11.070;2023-02-11T13:55:13;99987.56;;;11.35
15360;BMP280;7779;49.596;11.070;2023-02-11T13:57:41;99981.22;;;11.29
15360;BMP280;7779;49.596;11.070;2023-02-11T14:06:26;99990.91;;;11.14
15360;BMP280;7779;49.596;11.070;2023-02-11T14:09:38;99998.56;;;11.06
15360;BMP280;7779;49.596;11.070;2023-02-11T14:15:17;99996.34;;;10.99
15360;BMP280;7779;49.596;11.070;2023-02-11T14:17:43;99999.34;;;10.95
15360;BMP280;7779;49.596;11.070;2023-02-11T14:20:38;100000.00;;;10.92
15360;BMP280;7779;49.596;11.070;2023-02-11T14:23:06;99994.72;;;10.90
15360;BMP280;7779;49.596;11.070;2023-02-11T14:25:32;99990.34;;;10.87
15360;BMP280;7779;49.596;11.070;2023-02-11T14:28:06;99982.06;;;10.88
15360;BMP280;7779;49.596;11.070;2023-02-11T14:30:58;99993.88;;;10.89
15360;BMP280;7779;49.596;11.070;2023-02-11T14:39:39;99988.84;;;10.79
15360;BMP280;7779;49.596;11.070;2023-02-11T14:42:18;99994.16;;;10.72
15360;BMP280;7779;49.596;11.070;2023-02-11T14:44:52;100000.41;;;10.67
15360;BMP280;7779;49.596;11.070;2023-02-11T14:47:28;100004.44;;;10.65
15360;BMP280;7779;49.596;11.070;2023-02-11T14:49:55;100004.91;;;10.61
15360;BMP280;7779;49.596;11.070;2023-02-11T14:52:33;100002.19;;;10.58
15360;BMP280;7779;49.596;11.070;2023-02-11T14:55:35;99994.25;;;10.54
15360;BMP280;7779;49.596;11.070;2023-02-11T14:58:14;99984.00;;;10.51
15360;BMP280;7779;49.596;11.070;2023-02-11T15:01:32;99993.91;;;10.50
15360;BMP280;7779;49.596;11.070;2023-02-11T15:04:02;99998.66;;;10.47
15360;BMP280;7779;49.596;11.070;2023-02-11T15:06:39;100005.19;;;10.45
15360;BMP280;7779;49.596;11.070;2023-02-11T15:09:21;100004.19;;;10.43
15360;BMP280;7779;49.596;11.070;2023-02-11T15:11:54;100007.31;;;10.40
15360;BMP280;7779;49.596;11.070;2023-02-11T15:14:28;100017.94;;;10.38
15360;BMP280;7779;49.596;11.070;2023-02-11T15:17:00;100014.44;;;10.36
15360;BMP280;7779;49.596;11.070;2023-02-11T15:19:34;100017.72;;;10.35
15360;BMP280;7779;49.596;11.070;2023-02-11T15:22:05;100013.31;;;10.32
15360;BMP280;7779;49.596;11.070;2023-02-11T15:24:33;100020.69;;;10.31
15360;BMP280;7779;49.596;11.070;2023-02-11T15:27:13;100018.94;;;10.30
15360;BMP280;7779;49.596;11.070;2023-02-11T15:29:44;100018.81;;;10.28
15360;BMP280;7779;49.596;11.070;2023-02-11T15:32:15;100017.81;;;10.26
15360;BMP280;7779;49.596;11.070;2023-02-11T15:34:43;100014.59;;;10.27
15360;BMP280;7779;49.596;11.070;2023-02-11T15:37:30;100019.59;;;10.27
15360;BMP280;7779;49.596;11.070;2023-02-11T15:40:17;100018.69;;;10.27
15360;BMP280;7779;49.596;11.070;2023-02-11T15:43:12;100020.19;;;10.25
15360;BMP280;7779;49.596;11.070;2023-02-11T15:48:22;100014.19;;;10.23
15360;BMP280;7779;49.596;11.070;2023-02-11T15:50:55;100021.69;;;10.23
15360;BMP280;7779;49.596;11.070;2023-02-11T15:53:41;100019.06;;;10.21
15360;BMP280;7779;49.596;11.070;2023-02-11T15:58:42;100027.94;;;10.18
15360;BMP280;7779;49.596;11.070;2023-02-11T16:01:09;100022.06;;;10.17
15360;BMP280;7779;49.596;11.070;2023-02-11T16:03:36;100027.06;;;10.17